createdAt,value
2023-01-02T00:01:07.074Z,69.60
2023-01-02T00:05:28.760Z,69.60
2023-01-02T00:09:47.809Z,69.80
2023-01-02T00:14:05.982Z,70.00
2023-01-02T00:18:24.172Z,70.10
2023-01-02T00:22:43.157Z,70.30
2023-01-02T00:27:03.025Z,70.40
2023-01-02T00:31:21.446Z,70.50
2023-01-02T00:35:39.854Z,70.60
2023-01-02T00:39:58.821Z,70.60
2023-01-02T00:44:18.249Z,70.50
2023-01-02T00:48:36.341Z,70.40
2023-01-02T00:52:55.171Z,70.30
2023-01-02T00:57:14.860Z,70.30
2023-01-02T01:01:33.851Z,70.00
2023-01-02T01:05:51.639Z,69.60
2023-01-02T01:10:09.732Z,69.50
2023-01-02T01:14:30.279Z,69.10
2023-01-02T01:18:49.051Z,68.70
2023-01-02T01:23:06.932Z,68.10
2023-01-02T01:27:25.375Z,67.80
2023-01-02T01:31:44.445Z,67.40
2023-01-02T01:36:04.983Z,67.00
2023-01-02T01:40:22.245Z,66.50
2023-01-02T01:44:46.334Z,66.20
2023-01-02T01:49:11.254Z,65.70
2023-01-02T01:53:28.689Z,65.50
2023-01-02T01:57:49.914Z,65.20
2023-01-02T02:02:08.486Z,65.10
2023-01-02T02:06:27.295Z,65.00
2023-01-02T02:10:47.937Z,64.80
2023-01-02T02:15:11.177Z,64.60
2023-01-02T02:20:06.011Z,64.70
2023-01-02T02:25:02.849Z,64.20
2023-01-02T02:29:58.303Z,64.40
2023-01-02T02:34:26.320Z,64.40
2023-01-02T02:38:55.397Z,64.10
2023-01-02T02:43:21.781Z,64.20
2023-01-02T02:47:47.641Z,64.40
2023-01-02T02:52:13.923Z,64.50
2023-01-02T02:56:33.771Z,64.50
2023-01-02T03:00:51.543Z,64.60
2023-01-02T03:05:13.494Z,64.70
2023-01-02T03:09:39.838Z,64.80
2023-01-02T03:14:06.999Z,64.80
2023-01-02T03:18:34.082Z,64.80
2023-01-02T03:22:59.410Z,65.60
2023-01-02T03:27:23.540Z,64.90
2023-01-02T03:31:43.374Z,64.90
2023-01-02T03:36:05.824Z,64.70
2023-01-02T03:40:27.443Z,64.60
2023-01-02T03:44:56.066Z,64.30
2023-01-02T03:49:20.336Z,64.20
2023-01-02T03:53:40.919Z,64.10
2023-01-02T03:58:08.974Z,64.10
2023-01-02T04:02:35.815Z,63.90
2023-01-02T04:07:02.701Z,63.80
2023-01-02T04:11:23.841Z,63.80
2023-01-02T04:15:45.206Z,63.50
2023-01-02T04:20:12.427Z,63.50
2023-01-02T04:24:34.782Z,63.40
2023-01-02T04:28:52.512Z,63.50
2023-01-02T04:33:13.393Z,63.50
2023-01-02T04:37:36.361Z,63.40
2023-01-02T04:41:55.905Z,63.60
2023-01-02T04:46:14.195Z,63.50
2023-01-02T04:50:32.034Z,63.30
2023-01-02T04:54:54.700Z,63.40
2023-01-02T04:59:14.054Z,63.20
2023-01-02T05:03:32.223Z,63.20
2023-01-02T05:07:50.504Z,63.20
2023-01-02T05:12:09.804Z,63.20
2023-01-02T05:16:29.446Z,63.30
2023-01-02T05:20:47.681Z,63.30
2023-01-02T05:25:06.113Z,63.60
2023-01-02T05:29:28.303Z,63.80
2023-01-02T05:33:52.199Z,63.80
2023-01-02T05:38:12.163Z,63.70
2023-01-02T05:42:30.495Z,63.80
2023-01-02T05:46:49.751Z,63.70
2023-01-02T05:51:11.855Z,63.40
2023-01-02T05:55:30.362Z,63.30
2023-01-02T05:59:48.425Z,63.20
2023-01-02T06:04:08.354Z,62.90
2023-01-02T06:08:27.718Z,62.70
2023-01-02T06:12:45.951Z,62.50
2023-01-02T06:17:03.817Z,62.50
2023-01-02T06:21:24.173Z,62.30
2023-01-02T06:25:43.338Z,62.40
2023-01-02T06:30:01.089Z,62.10
2023-01-02T06:34:19.301Z,62.20
2023-01-02T06:38:38.854Z,62.10
2023-01-02T06:43:00.277Z,62.20
2023-01-02T06:47:19.452Z,62.40
2023-01-02T06:51:37.442Z,62.30
2023-01-02T06:55:58.717Z,62.20
2023-01-02T07:00:18.043Z,62.30
2023-01-02T07:04:37.808Z,62.20
2023-01-02T07:08:55.942Z,62.10
2023-01-02T07:13:15.235Z,62.30
2023-01-02T07:17:35.399Z,63.70
2023-01-02T07:21:53.007Z,64.00
2023-01-02T07:26:11.760Z,64.30
2023-01-02T07:30:30.647Z,64.40
2023-01-02T07:34:50.798Z,64.40
2023-01-02T07:39:08.751Z,64.20
2023-01-02T07:43:26.610Z,64.00
2023-01-02T07:47:45.972Z,63.80
2023-01-02T07:52:06.055Z,63.50
2023-01-02T07:56:23.663Z,63.40
2023-01-02T08:00:41.778Z,63.10
2023-01-02T08:05:01.070Z,63.10
2023-01-02T08:09:21.207Z,63.00
2023-01-02T08:13:39.215Z,63.00
2023-01-02T08:17:58.355Z,62.80
2023-01-02T08:22:19.669Z,62.70
2023-01-02T08:26:39.272Z,62.60
2023-01-02T08:30:57.996Z,62.50
2023-01-02T08:35:15.504Z,62.60
2023-01-02T08:39:34.851Z,62.50
2023-01-02T08:43:54.981Z,62.50
2023-01-02T08:48:19.802Z,62.40
2023-01-02T08:52:40.150Z,62.40
2023-01-02T08:56:59.507Z,62.40
2023-01-02T09:01:20.009Z,62.30
2023-01-02T09:05:37.109Z,62.20
2023-01-02T09:09:55.231Z,62.10
2023-01-02T09:14:14.846Z,62.10
2023-01-02T09:18:34.501Z,61.80
2023-01-02T09:22:52.378Z,61.70
2023-01-02T09:27:10.386Z,61.50
2023-01-02T09:31:30.492Z,61.60
2023-01-02T09:35:49.724Z,61.50
2023-01-02T09:40:08.942Z,61.50
2023-01-02T09:44:36.405Z,61.70
2023-01-02T09:48:57.708Z,61.80
2023-01-02T09:53:17.818Z,62.00
2023-01-02T09:57:45.047Z,61.90
2023-01-02T10:02:15.117Z,61.80
2023-01-02T10:06:41.348Z,62.00
2023-01-02T10:11:09.227Z,62.10
2023-01-02T10:15:30.493Z,62.10
2023-01-02T10:19:54.923Z,62.10
2023-01-02T10:24:19.180Z,61.80
2023-01-02T10:28:45.415Z,61.60
2023-01-02T10:33:12.217Z,61.40
2023-01-02T10:37:32.158Z,61.00
2023-01-02T10:41:57.203Z,60.50
2023-01-02T10:46:16.837Z,60.20
2023-01-02T10:50:42.359Z,59.90
2023-01-02T10:55:03.253Z,59.80
2023-01-02T10:59:24.010Z,59.90
2023-01-02T11:03:41.521Z,59.60
2023-01-02T11:08:00.240Z,59.30
2023-01-02T11:12:20.270Z,59.00
2023-01-02T11:16:43.411Z,58.40
2023-01-02T11:21:06.525Z,57.90
2023-01-02T11:25:26.610Z,57.60
2023-01-02T11:29:48.802Z,56.90
2023-01-02T11:34:20.329Z,56.80
2023-01-02T11:38:45.277Z,56.70
2023-01-02T11:43:25.558Z,56.40
2023-01-02T11:47:46.414Z,56.00
2023-01-02T11:52:07.876Z,55.90
2023-01-02T11:56:29.911Z,56.00
2023-01-02T12:00:55.647Z,56.00
2023-01-02T12:05:16.518Z,56.00
2023-01-02T12:09:50.788Z,56.00
2023-01-02T12:14:15.177Z,56.90
2023-01-02T12:18:55.226Z,56.30
2023-01-02T12:23:28.878Z,56.60
2023-01-02T12:27:59.629Z,56.50
2023-01-02T12:32:59.364Z,56.10
2023-01-02T12:37:34.154Z,55.90
2023-01-02T12:42:04.256Z,55.70
2023-01-02T12:46:40.964Z,55.60
2023-01-02T12:51:08.898Z,55.50
2023-01-02T12:55:38.416Z,55.60
2023-01-02T13:00:23.169Z,55.50
2023-01-02T13:04:48.056Z,55.50
2023-01-02T13:09:21.781Z,55.50
2023-01-02T13:13:41.469Z,55.60
2023-01-02T13:18:04.334Z,55.50
2023-01-02T13:22:35.163Z,55.40
2023-01-02T13:26:55.634Z,55.10
2023-01-02T13:31:47.039Z,55.10
2023-01-02T13:36:01.507Z,55.20
2023-01-02T13:40:27.554Z,55.10
2023-01-02T13:44:49.670Z,55.10
2023-01-02T13:49:13.387Z,55.10
2023-01-02T13:53:40.894Z,55.10
2023-01-02T13:58:38.558Z,55.20
2023-01-02T14:03:33.870Z,55.10
2023-01-02T14:07:51.879Z,55.10
2023-01-02T14:12:14.072Z,55.30
2023-01-02T14:17:03.218Z,56.40
2023-01-02T14:21:22.814Z,55.90
2023-01-02T14:25:47.743Z,56.20
2023-01-02T14:30:13.607Z,56.60
2023-01-02T14:34:35.315Z,56.80
2023-01-02T14:38:57.778Z,58.00
2023-01-02T14:43:34.071Z,57.60
2023-01-02T14:47:57.069Z,57.90
2023-01-02T14:52:23.078Z,58.40
2023-01-02T14:56:44.980Z,58.70
2023-01-02T15:01:06.576Z,59.10
2023-01-02T15:05:34.613Z,59.50
2023-01-02T15:09:56.407Z,59.70
2023-01-02T15:14:23.572Z,60.00
2023-01-02T15:18:46.787Z,60.30
2023-01-02T15:23:20.791Z,60.80
2023-01-02T15:27:39.817Z,61.30
2023-01-02T15:32:01.593Z,61.90
2023-01-02T15:36:32.942Z,62.30
2023-01-02T15:40:51.256Z,62.60
2023-01-02T15:45:15.543Z,62.90
2023-01-02T15:49:33.210Z,63.50
2023-01-02T15:53:51.270Z,63.90
2023-01-02T15:58:28.084Z,64.30
2023-01-02T16:02:47.085Z,64.80
2023-01-02T16:07:16.118Z,65.20
2023-01-02T16:11:44.999Z,65.60
2023-01-02T16:16:15.875Z,65.90
2023-01-02T16:20:36.933Z,66.20
2023-01-02T16:25:02.390Z,66.50
2023-01-02T16:29:22.992Z,66.80
2023-01-02T16:33:41.953Z,67.10
2023-01-02T16:38:06.049Z,67.40
2023-01-02T16:42:36.668Z,67.70
2023-01-02T16:47:03.556Z,67.80
2023-01-02T16:51:21.402Z,68.00
2023-01-02T16:55:40.402Z,68.30
2023-01-02T16:59:59.967Z,68.60
2023-01-02T17:04:18.032Z,68.80
2023-01-02T17:08:36.297Z,69.00
2023-01-02T17:12:55.609Z,69.30
2023-01-02T17:17:15.310Z,69.70
2023-01-02T17:21:33.607Z,70.00
2023-01-02T17:25:51.844Z,70.20
2023-01-02T17:30:16.295Z,70.60
2023-01-02T17:34:37.156Z,71.00
2023-01-02T17:38:55.313Z,71.50
2023-01-02T17:43:12.921Z,72.10
2023-01-02T17:47:58.748Z,73.10
2023-01-02T17:52:12.568Z,74.00
2023-01-02T17:56:31.735Z,75.10
2023-01-02T18:00:50.045Z,76.40
2023-01-02T18:05:10.349Z,77.70
2023-01-02T18:09:29.364Z,79.20
2023-01-02T18:13:50.332Z,81.00
2023-01-02T18:18:15.864Z,82.50
2023-01-02T18:22:37.624Z,84.10
2023-01-02T18:27:11.966Z,85.60
2023-01-02T18:31:33.632Z,87.00
2023-01-02T18:35:57.887Z,88.40
2023-01-02T18:40:27.981Z,89.70
2023-01-02T18:44:45.795Z,90.50
2023-01-02T18:49:14.995Z,91.00
2023-01-02T18:53:40.322Z,91.40
2023-01-02T18:58:02.881Z,91.80
2023-01-02T19:02:30.036Z,92.10
2023-01-02T19:06:51.417Z,92.50
2023-01-02T19:11:29.755Z,92.90
2023-01-02T19:15:53.790Z,93.50
2023-01-02T19:20:12.995Z,94.00
2023-01-02T19:24:38.312Z,94.50
2023-01-02T19:28:59.474Z,95.00
2023-01-02T19:33:40.085Z,95.40
2023-01-02T19:37:58.398Z,95.90
2023-01-02T19:42:22.004Z,96.30
2023-01-02T19:46:39.788Z,96.80
2023-01-02T19:50:59.139Z,97.20
2023-01-02T19:55:19.495Z,97.70
2023-01-02T19:59:43.364Z,98.10
2023-01-02T20:04:01.141Z,98.50
2023-01-02T20:08:20.687Z,98.90
2023-01-02T20:12:41.643Z,99.20
2023-01-02T20:17:01.860Z,99.50
2023-01-02T20:21:22.016Z,99.80
2023-01-02T20:25:42.248Z,99.90
2023-01-02T20:30:01.816Z,99.90
2023-01-02T20:34:20.441Z,99.90
2023-01-02T20:38:38.513Z,99.90
2023-01-02T20:42:57.261Z,99.90
2023-01-02T20:47:17.435Z,99.90
2023-01-02T20:51:35.380Z,99.90
2023-01-02T20:55:53.196Z,99.90
2023-01-02T21:00:14.164Z,99.90
2023-01-02T21:04:36.717Z,99.90
2023-01-02T21:08:56.451Z,99.90
2023-01-02T21:13:14.647Z,99.90
2023-01-02T21:17:33.947Z,99.90
2023-01-02T21:21:53.688Z,99.90
2023-01-02T21:26:14.338Z,99.90
2023-01-02T21:30:33.669Z,99.90
2023-01-02T21:34:52.566Z,99.90
2023-01-02T21:39:12.251Z,99.90
2023-01-02T21:43:30.216Z,99.90
2023-01-02T21:47:48.979Z,99.90
2023-01-02T21:52:07.943Z,99.90
2023-01-02T21:56:27.389Z,99.90
2023-01-02T22:00:45.507Z,99.90
2023-01-02T22:05:03.553Z,99.90
2023-01-02T22:09:23.198Z,99.90
2023-01-02T22:13:42.730Z,99.90
2023-01-02T22:18:00.781Z,99.90
2023-01-02T22:22:18.959Z,99.90
2023-01-02T22:26:40.137Z,99.90
2023-01-02T22:30:58.994Z,99.90
2023-01-02T22:35:19.329Z,99.90
2023-01-02T22:39:38.867Z,99.90
2023-01-02T22:44:01.950Z,99.90
2023-01-02T22:48:23.006Z,99.90
2023-01-02T22:52:40.607Z,99.90
2023-01-02T22:56:58.779Z,99.90
2023-01-02T23:01:20.369Z,99.90
2023-01-02T23:05:41.280Z,99.90
2023-01-02T23:09:58.982Z,99.90
2023-01-02T23:14:17.097Z,99.90
2023-01-02T23:18:56.890Z,99.90
2023-01-02T23:23:14.669Z,99.90
2023-01-02T23:27:33.662Z,99.90
2023-01-02T23:31:52.041Z,99.90
2023-01-02T23:36:13.380Z,99.90
2023-01-02T23:40:34.474Z,99.90
2023-01-02T23:44:54.172Z,99.90
2023-01-02T23:49:12.794Z,99.90
2023-01-02T23:53:35.224Z,99.90
2023-01-02T23:57:54.485Z,99.90
